createdAt,value
2023-02-11T00:01:15.436Z,6.70
2023-02-11T00:03:42.498Z,6.95
2023-02-11T00:06:10.747Z,6.60
2023-02-11T00:08:38.618Z,6.38
2023-02-11T00:11:05.900Z,7.45
2023-02-11T00:13:32.902Z,6.70
2023-02-11T00:15:59.859Z,7.22
2023-02-11T00:18:27.749Z,8.02
2023-02-11T00:20:54.738Z,7.38
2023-02-11T00:23:21.747Z,7.18
2023-02-11T00:25:48.969Z,6.63
2023-02-11T00:28:16.118Z,6.28
2023-02-11T00:30:43.260Z,7.68
2023-02-11T00:33:10.457Z,7.78
2023-02-11T00:35:38.753Z,7.30
2023-02-11T00:38:08.103Z,7.10
2023-02-11T00:40:35.194Z,6.63
2023-02-11T00:43:04.029Z,6.50
2023-02-11T00:45:31.095Z,6.65
2023-02-11T00:47:58.188Z,6.25
2023-02-11T00:50:25.613Z,6.18
2023-02-11T00:52:52.630Z,7.35
2023-02-11T00:55:19.651Z,7.43
2023-02-11T00:57:46.656Z,7.15
2023-02-11T01:00:16.846Z,6.18
2023-02-11T01:02:45.039Z,6.82
2023-02-11T01:05:12.036Z,6.70
2023-02-11T01:07:39.146Z,7.53
2023-02-11T01:10:06.397Z,8.10
2023-02-11T01:12:36.197Z,7.10
2023-02-11T01:15:04.741Z,6.80
2023-02-11T01:17:33.550Z,6.82
2023-02-11T01:20:06.128Z,7.10
2023-02-11T01:22:34.481Z,7.93
2023-02-11T01:25:01.539Z,6.90
2023-02-11T01:27:28.729Z,8.15
2023-02-11T01:29:57.710Z,7.85
2023-02-11T01:32:24.915Z,7.22
2023-02-11T01:34:54.873Z,7.18
2023-02-11T01:37:21.912Z,7.78
2023-02-11T01:39:48.884Z,7.70
2023-02-11T01:42:18.045Z,7.63
2023-02-11T01:44:45.226Z,7.82
2023-02-11T01:47:12.246Z,6.88
2023-02-11T01:49:44.509Z,7.28
2023-02-11T01:52:14.238Z,6.93
2023-02-11T01:55:08.318Z,6.82
2023-02-11T01:57:38.034Z,9.00
2023-02-11T02:00:21.614Z,7.20
2023-02-11T02:03:06.724Z,6.15
2023-02-11T02:05:58.410Z,7.80
2023-02-11T02:08:25.424Z,7.47
2023-02-11T02:10:56.600Z,7.40
2023-02-11T02:13:24.767Z,7.03
2023-02-11T02:16:09.955Z,6.38
2023-02-11T02:18:55.964Z,7.43
2023-02-11T02:21:41.789Z,7.35
2023-02-11T02:24:46.163Z,7.18
2023-02-11T02:27:39.440Z,7.05
2023-02-11T02:30:21.324Z,6.95
2023-02-11T02:33:24.052Z,7.78
2023-02-11T02:36:14.702Z,8.32
2023-02-11T02:39:07.459Z,7.00
2023-02-11T02:41:37.086Z,7.72
2023-02-11T02:44:04.792Z,8.07
2023-02-11T02:46:34.055Z,6.40
2023-02-11T02:49:01.305Z,7.15
2023-02-11T02:51:45.733Z,7.07
2023-02-11T02:54:24.478Z,7.38
2023-02-11T02:57:09.976Z,7.47
2023-02-11T03:00:00.033Z,7.45
2023-02-11T03:02:53.086Z,7.00
2023-02-11T03:05:44.681Z,7.63
2023-02-11T03:08:51.429Z,7.60
2023-02-11T03:11:20.366Z,7.22
2023-02-11T03:13:48.829Z,7.47
2023-02-11T03:16:25.299Z,8.23
2023-02-11T03:19:10.343Z,8.43
2023-02-11T03:21:39.360Z,7.97
2023-02-11T03:24:10.833Z,8.43
2023-02-11T03:26:46.602Z,8.20
2023-02-11T03:29:32.066Z,7.85
2023-02-11T03:32:07.568Z,8.35
2023-02-11T03:34:45.712Z,8.63
2023-02-11T03:37:33.356Z,7.43
2023-02-11T03:40:13.654Z,7.00
2023-02-11T03:42:51.779Z,7.78
2023-02-11T03:45:22.382Z,8.77
2023-02-11T03:47:55.178Z,8.43
2023-02-11T03:50:24.114Z,7.82
2023-02-11T03:52:51.662Z,7.68
2023-02-11T03:55:21.162Z,7.70
2023-02-11T03:57:48.795Z,6.93
2023-02-11T04:00:16.245Z,8.23
2023-02-11T04:02:43.663Z,8.20
2023-02-11T04:05:13.137Z,7.30
2023-02-11T04:07:40.214Z,8.38
2023-02-11T04:10:07.791Z,7.70
2023-02-11T04:12:34.777Z,7.78
2023-02-11T04:15:01.724Z,7.50
2023-02-11T04:17:28.754Z,7.75
2023-02-11T04:19:55.805Z,8.10
2023-02-11T04:22:22.809Z,8.93
2023-02-11T04:24:49.790Z,8.55
2023-02-11T04:27:17.053Z,8.18
2023-02-11T04:29:43.987Z,9.45
2023-02-11T04:32:12.321Z,8.95
2023-02-11T04:34:39.494Z,9.35
2023-02-11T04:37:06.679Z,9.40
2023-02-11T04:39:33.713Z,8.63
2023-02-11T04:42:00.769Z,8.52
2023-02-11T04:44:27.711Z,8.45
2023-02-11T04:46:54.827Z,9.98
2023-02-11T04:49:22.018Z,9.90
2023-02-11T04:51:49.638Z,10.13
2023-02-11T04:54:17.141Z,10.50
2023-02-11T04:56:44.358Z,9.23
2023-02-11T04:59:13.049Z,9.57
2023-02-11T05:01:40.577Z,11.48
2023-02-11T05:04:07.707Z,10.98
2023-02-11T05:06:34.863Z,10.32
2023-02-11T05:09:01.932Z,12.50
2023-02-11T05:11:28.983Z,11.60
2023-02-11T05:13:55.986Z,11.52
2023-02-11T05:16:23.453Z,10.70
2023-02-11T05:18:52.522Z,10.85
2023-02-11T05:21:20.486Z,12.15
2023-02-11T05:23:47.907Z,11.57
2023-02-11T05:26:15.327Z,11.18
2023-02-11T05:28:43.096Z,11.75
2023-02-11T05:31:10.439Z,11.60
2023-02-11T05:33:37.927Z,12.52
2023-02-11T05:36:08.448Z,11.75
2023-02-11T05:38:36.667Z,12.23
2023-02-11T05:41:04.485Z,11.98
2023-02-11T05:43:31.577Z,12.80
2023-02-11T05:45:59.101Z,11.63
2023-02-11T05:48:26.155Z,12.15
2023-02-11T05:50:53.060Z,12.00
2023-02-11T05:53:20.170Z,11.95
2023-02-11T05:55:47.158Z,11.50
2023-02-11T05:58:14.130Z,12.40
2023-02-11T06:00:41.121Z,15.57
2023-02-11T06:03:08.191Z,16.25
2023-02-11T06:05:35.198Z,12.75
2023-02-11T06:08:02.223Z,14.30
2023-02-11T06:10:29.246Z,17.70
2023-02-11T06:12:56.310Z,15.25
2023-02-11T06:15:23.354Z,13.95
2023-02-11T06:17:51.733Z,13.13
2023-02-11T06:20:19.029Z,12.23
2023-02-11T06:22:46.252Z,11.77
2023-02-11T06:25:13.419Z,11.80
2023-02-11T06:27:40.690Z,10.35
2023-02-11T06:30:08.635Z,11.70
2023-02-11T06:32:43.843Z,16.73
2023-02-11T06:35:12.757Z,16.65
2023-02-11T06:37:41.124Z,14.82
2023-02-11T06:40:08.544Z,13.32
2023-02-11T06:42:36.341Z,14.35
2023-02-11T06:45:06.175Z,14.27
2023-02-11T06:47:33.295Z,14.63
2023-02-11T06:50:00.229Z,13.80
2023-02-11T06:52:27.277Z,15.23
2023-02-11T06:54:54.247Z,14.77
2023-02-11T06:57:21.315Z,15.82
2023-02-11T06:59:48.337Z,16.52
2023-02-11T07:02:15.418Z,16.55
2023-02-11T07:04:42.472Z,15.52
2023-02-11T07:07:09.518Z,16.15
2023-02-11T07:09:36.470Z,16.27
2023-02-11T07:12:03.821Z,15.65
2023-02-11T07:14:30.798Z,16.23
2023-02-11T07:16:58.155Z,17.35
2023-02-11T07:19:25.133Z,16.98
2023-02-11T07:21:52.110Z,16.98
2023-02-11T07:24:19.045Z,17.70
2023-02-11T07:26:46.139Z,22.85
2023-02-11T07:29:13.110Z,17.02
2023-02-11T07:31:40.307Z,16.52
2023-02-11T07:34:07.434Z,16.60
2023-02-11T07:36:34.513Z,18.60
2023-02-11T07:39:01.544Z,16.83
2023-02-11T07:41:28.627Z,17.38
2023-02-11T07:43:56.100Z,17.23
2023-02-11T07:46:25.665Z,15.75
2023-02-11T07:48:52.894Z,18.25
2023-02-11T07:51:23.383Z,17.85
2023-02-11T07:53:50.796Z,17.58
2023-02-11T07:56:18.993Z,19.92
2023-02-11T07:58:46.796Z,20.35
2023-02-11T08:01:25.098Z,20.13
2023-02-11T08:03:53.325Z,19.00
2023-02-11T08:06:22.078Z,18.38
2023-02-11T08:08:49.574Z,17.80
2023-02-11T08:11:19.186Z,20.80
2023-02-11T08:13:46.492Z,18.67
2023-02-11T08:16:23.280Z,18.85
2023-02-11T08:18:51.412Z,20.17
2023-02-11T08:21:19.110Z,20.27
2023-02-11T08:23:46.764Z,20.20
2023-02-11T08:26:19.557Z,19.67
2023-02-11T08:28:48.425Z,21.42
2023-02-11T08:31:25.008Z,19.48
2023-02-11T08:33:52.263Z,20.85
2023-02-11T08:36:21.837Z,21.20
2023-02-11T08:38:49.196Z,23.08
2023-02-11T08:41:16.248Z,21.15
2023-02-11T08:43:44.393Z,20.42
2023-02-11T08:46:16.342Z,23.30
2023-02-11T08:48:44.342Z,24.63
2023-02-11T08:51:19.515Z,24.33
2023-02-11T08:53:47.097Z,24.30
2023-02-11T08:56:15.417Z,23.38
2023-02-11T08:58:43.282Z,24.10
2023-02-11T09:01:14.743Z,33.65
2023-02-11T09:03:41.873Z,22.55
2023-02-11T09:06:10.808Z,24.83
2023-02-11T09:08:40.455Z,23.50
2023-02-11T09:11:07.832Z,24.17
2023-02-11T09:13:35.002Z,24.02
2023-02-11T09:16:04.512Z,22.52
2023-02-11T09:18:32.294Z,22.35
2023-02-11T09:21:07.807Z,25.60
2023-02-11T09:23:35.126Z,33.45
2023-02-11T09:26:10.465Z,24.70
2023-02-11T09:28:37.575Z,21.40
2023-02-11T09:31:09.627Z,34.88
2023-02-11T09:33:38.647Z,23.15
2023-02-11T09:36:06.840Z,28.10
2023-02-11T09:38:34.418Z,22.70
2023-02-11T09:41:04.092Z,19.95
2023-02-11T09:43:44.244Z,19.48
2023-02-11T09:46:16.211Z,20.02
2023-02-11T09:48:45.694Z,19.05
2023-02-11T09:51:44.794Z,27.23
2023-02-11T09:54:19.354Z,21.77
2023-02-11T09:56:46.477Z,18.65
2023-02-11T09:59:17.692Z,18.15
2023-02-11T10:01:49.113Z,25.15
2023-02-11T10:04:28.228Z,18.17
2023-02-11T10:07:18.749Z,17.77
2023-02-11T10:09:54.009Z,17.80
2023-02-11T10:12:56.593Z,19.15
2023-02-11T10:15:52.201Z,17.80
2023-02-11T10:18:37.406Z,19.63
2023-02-11T10:21:30.849Z,19.20
2023-02-11T10:24:01.856Z,19.40
2023-02-11T10:26:31.665Z,19.45
2023-02-11T10:29:05.664Z,18.77
2023-02-11T10:31:43.678Z,19.25
2023-02-11T10:34:13.892Z,19.02
2023-02-11T10:36:44.742Z,17.42
2023-02-11T10:39:14.046Z,18.45
2023-02-11T10:41:57.312Z,17.77
2023-02-11T10:44:33.953Z,19.10
2023-02-11T10:47:06.144Z,18.05
2023-02-11T10:49:34.758Z,24.70
2023-02-11T10:52:26.959Z,18.95
2023-02-11T10:55:27.936Z,24.52
2023-02-11T10:58:02.865Z,17.02
2023-02-11T11:00:40.934Z,18.20
2023-02-11T11:03:21.783Z,17.98
2023-02-11T11:05:51.878Z,21.80
2023-02-11T11:08:19.683Z,17.08
2023-02-11T11:11:08.658Z,25.00
2023-02-11T11:13:41.074Z,16.92
2023-02-11T11:16:13.896Z,18.73
2023-02-11T11:18:46.812Z,19.15
2023-02-11T11:21:16.022Z,22.95
2023-02-11T11:23:50.417Z,23.10
2023-02-11T11:26:18.202Z,17.75
2023-02-11T11:29:07.721Z,16.85
2023-02-11T11:31:45.184Z,17.80
2023-02-11T11:34:22.192Z,23.98
2023-02-11T11:36:53.060Z,18.88
2023-02-11T11:39:32.631Z,24.35
2023-02-11T11:42:00.859Z,18.30
2023-02-11T11:44:37.476Z,17.50
2023-02-11T11:47:22.067Z,17.60
2023-02-11T11:50:12.122Z,21.52
2023-02-11T11:52:49.743Z,19.25
2023-02-11T11:55:25.362Z,16.88
2023-02-11T11:57:52.516Z,21.67
2023-02-11T12:00:24.000Z,17.98
2023-02-11T12:02:57.049Z,23.00
2023-02-11T12:05:33.051Z,23.13
2023-02-11T12:08:00.028Z,17.88
2023-02-11T12:10:54.737Z,23.42
2023-02-11T12:13:35.769Z,16.95
2023-02-11T12:16:26.464Z,18.35
2023-02-11T12:19:34.056Z,14.82
2023-02-11T12:22:11.166Z,13.82
2023-02-11T12:24:44.084Z,15.02
2023-02-11T12:27:48.628Z,16.83
2023-02-11T12:30:53.247Z,18.80
2023-02-11T12:33:44.936Z,16.88
2023-02-11T12:36:24.073Z,16.02
2023-02-11T12:39:12.195Z,15.85
2023-02-11T12:42:09.526Z,15.38
2023-02-11T12:44:56.018Z,18.15
2023-02-11T12:47:43.622Z,14.80
2023-02-11T12:50:41.680Z,15.73
2023-02-11T12:53:36.642Z,14.43
2023-02-11T12:56:32.706Z,15.18
2023-02-11T12:59:01.640Z,14.98
2023-02-11T13:01:37.374Z,13.80
2023-02-11T13:04:13.184Z,15.88
2023-02-11T13:06:55.512Z,15.90
2023-02-11T13:09:26.843Z,16.17
2023-02-11T13:12:20.659Z,12.85
2023-02-11T13:14:49.956Z,14.60
2023-02-11T13:17:41.606Z,14.57
2023-02-11T13:20:25.503Z,11.48
2023-02-11T13:23:12.775Z,15.35
2023-02-11T13:25:52.964Z,12.48
2023-02-11T13:28:26.418Z,11.10
2023-02-11T13:31:02.612Z,12.98
2023-02-11T13:33:37.782Z,13.27
2023-02-11T13:36:04.951Z,14.82
2023-02-11T13:38:32.781Z,11.60
2023-02-11T13:41:02.697Z,10.52
2023-02-11T13:43:31.503Z,11.80
2023-02-11T13:46:04.818Z,10.57
2023-02-11T13:48:33.358Z,11.40
2023-02-11T13:51:04.924Z,11.60
2023-02-11T13:53:46.774Z,11.73
2023-02-11T13:56:29.664Z,10.95
2023-02-11T13:59:01.465Z,11.43
2023-02-11T14:02:17.752Z,11.73
2023-02-11T14:05:37.831Z,9.35
2023-02-11T14:08:26.228Z,10.68
2023-02-11T14:10:54.502Z,9.68
2023-02-11T14:13:32.802Z,10.30
2023-02-11T14:16:10.762Z,10.55
2023-02-11T14:18:39.328Z,11.25
2023-02-11T14:21:28.968Z,10.73
2023-02-11T14:24:01.997Z,9.57
2023-02-11T14:26:44.355Z,9.93
2023-02-11T14:29:23.011Z,9.52
2023-02-11T14:32:05.366Z,9.73
2023-02-11T14:34:55.558Z,9.13
2023-02-11T14:37:51.094Z,9.10
2023-02-11T14:40:39.549Z,9.50
2023-02-11T14:43:30.007Z,8.73
2023-02-11T14:45:58.474Z,8.82
2023-02-11T14:48:31.469Z,9.15
2023-02-11T14:51:00.856Z,8.33
2023-02-11T14:53:30.257Z,8.00
2023-02-11T14:55:57.581Z,7.60
2023-02-11T14:58:29.591Z,7.50
2023-02-11T15:01:02.537Z,8.27
2023-02-11T15:03:39.302Z,7.90
2023-02-11T15:06:18.922Z,8.95
2023-02-11T15:08:53.522Z,7.82
2023-02-11T15:11:22.687Z,6.97
2023-02-11T15:13:50.521Z,7.80
2023-02-11T15:16:23.895Z,7.78
2023-02-11T15:19:01.421Z,8.27
2023-02-11T15:21:31.106Z,7.55
2023-02-11T15:24:03.301Z,7.82
2023-02-11T15:26:30.776Z,8.23
2023-02-11T15:28:57.883Z,7.60
2023-02-11T15:31:27.264Z,8.07
2023-02-11T15:33:55.261Z,8.85
2023-02-11T15:36:28.753Z,8.45
2023-02-11T15:39:18.677Z,8.88
2023-02-11T15:41:45.797Z,8.32
2023-02-11T15:44:30.607Z,7.93
2023-02-11T15:46:58.139Z,8.30
2023-02-11T15:49:26.484Z,8.30
2023-02-11T15:51:55.614Z,7.50
2023-02-11T15:54:29.475Z,8.00
2023-02-11T15:59:40.648Z,8.80
2023-02-11T16:02:09.888Z,8.85
2023-02-11T16:04:37.734Z,8.07
2023-02-11T16:07:05.259Z,7.88
2023-02-11T16:09:34.817Z,7.93
2023-02-11T16:12:07.547Z,7.95
2023-02-11T16:14:42.296Z,8.23
2023-02-11T16:17:13.067Z,7.90
2023-02-11T16:19:49.158Z,8.02
2023-02-11T16:22:24.969Z,8.15
2023-02-11T16:24:54.725Z,8.15
2023-02-11T16:27:41.280Z,7.65
2023-02-11T16:30:28.980Z,8.88
2023-02-11T16:32:56.003Z,7.28
2023-02-11T16:35:22.942Z,9.07
2023-02-11T16:37:50.002Z,8.75
2023-02-11T16:40:17.192Z,9.38
2023-02-11T16:42:44.173Z,9.75
2023-02-11T16:45:12.130Z,10.27
2023-02-11T16:47:42.607Z,10.23
2023-02-11T16:50:12.158Z,10.40
2023-02-11T16:52:39.192Z,9.48
2023-02-11T16:55:06.755Z,9.10
2023-02-11T16:57:33.878Z,10.68
2023-02-11T17:00:00.992Z,9.93
2023-02-11T17:02:35.007Z,11.68
2023-02-11T17:07:31.056Z,11.13
2023-02-11T17:09:58.575Z,11.32
2023-02-11T17:12:25.909Z,11.80
2023-02-11T17:14:53.859Z,11.55
2023-02-11T17:17:23.259Z,9.38
2023-02-11T17:19:51.151Z,10.90
2023-02-11T17:22:18.794Z,11.77
2023-02-11T17:24:45.977Z,11.35
2023-02-11T17:27:13.208Z,11.13
2023-02-11T17:29:40.214Z,12.02
2023-02-11T17:32:07.276Z,14.07
2023-02-11T17:34:34.417Z,12.93
2023-02-11T17:37:03.201Z,12.27
2023-02-11T17:39:30.226Z,13.82
2023-02-11T17:41:57.167Z,13.93
2023-02-11T17:44:24.137Z,13.63
2023-02-11T17:46:51.256Z,13.48
2023-02-11T17:49:19.273Z,11.68
2023-02-11T17:51:46.689Z,14.30
2023-02-11T17:54:16.922Z,12.70
2023-02-11T17:56:45.118Z,13.75
2023-02-11T17:59:14.080Z,12.18
2023-02-11T18:01:42.348Z,12.52
2023-02-11T18:04:13.630Z,12.43
2023-02-11T18:06:40.863Z,12.93
2023-02-11T18:09:07.911Z,14.23
2023-02-11T18:11:37.185Z,11.23
2023-02-11T18:14:07.782Z,10.38
2023-02-11T18:16:36.691Z,9.00
2023-02-11T18:19:04.057Z,11.10
2023-02-11T18:21:31.044Z,8.52
2023-02-11T18:24:01.121Z,11.07
2023-02-11T18:26:29.812Z,10.63
2023-02-11T18:29:00.557Z,9.15
2023-02-11T18:31:28.138Z,10.40
2023-02-11T18:33:55.363Z,9.05
2023-02-11T18:36:23.008Z,10.00
2023-02-11T18:38:50.098Z,8.57
2023-02-11T18:41:17.140Z,11.05
2023-02-11T18:43:44.189Z,10.13
2023-02-11T18:46:13.303Z,11.10
2023-02-11T18:48:40.956Z,11.95
2023-02-11T18:51:13.613Z,12.50
2023-02-11T18:53:40.887Z,12.65
2023-02-11T18:56:10.754Z,11.48
2023-02-11T18:58:38.365Z,11.18
2023-02-11T19:01:17.778Z,15.32
2023-02-11T19:03:45.651Z,14.75
2023-02-11T19:06:21.822Z,14.60
2023-02-11T19:08:48.980Z,13.35
2023-02-11T19:11:17.960Z,13.20
2023-02-11T19:13:45.428Z,12.32
2023-02-11T19:16:14.235Z,15.43
2023-02-11T19:18:41.286Z,15.07
2023-02-11T19:21:10.288Z,13.35
2023-02-11T19:23:37.747Z,17.83
2023-02-11T19:26:06.467Z,14.57
2023-02-11T19:28:35.408Z,15.20
2023-02-11T19:31:07.245Z,15.75
2023-02-11T19:33:34.326Z,16.20
2023-02-11T19:36:09.506Z,12.63
2023-02-11T19:38:36.608Z,14.07
2023-02-11T19:41:03.557Z,12.77
2023-02-11T19:43:30.747Z,10.30
2023-02-11T19:45:58.498Z,12.30
2023-02-11T19:48:26.057Z,11.85
2023-02-11T19:50:53.430Z,10.75
2023-02-11T19:53:20.791Z,11.80
2023-02-11T19:55:48.319Z,12.15
2023-02-11T19:58:16.483Z,12.30
2023-02-11T20:00:43.757Z,10.70
2023-02-11T20:03:10.852Z,12.93
2023-02-11T20:05:43.463Z,10.20
2023-02-11T20:08:10.503Z,11.40
2023-02-11T20:10:37.442Z,9.88
2023-02-11T20:13:04.560Z,11.50
2023-02-11T20:15:31.749Z,12.38
2023-02-11T20:17:58.840Z,9.75
2023-02-11T20:20:25.864Z,11.70
2023-02-11T20:22:52.863Z,10.48
2023-02-11T20:25:19.886Z,11.90
2023-02-11T20:27:46.966Z,11.23
2023-02-11T20:30:14.450Z,12.02
2023-02-11T20:32:41.580Z,10.88
2023-02-11T20:35:09.722Z,8.88
2023-02-11T20:37:36.776Z,10.02
2023-02-11T20:40:03.919Z,10.30
2023-02-11T20:42:30.954Z,11.15
2023-02-11T20:44:57.926Z,8.45
2023-02-11T20:47:24.964Z,9.60
2023-02-11T20:49:55.086Z,9.65
2023-02-11T20:52:22.102Z,10.63
2023-02-11T20:54:49.025Z,10.75
2023-02-11T20:57:16.050Z,9.75
2023-02-11T20:59:42.940Z,10.23
2023-02-11T21:02:10.330Z,9.75
2023-02-11T21:04:39.135Z,9.63
2023-02-11T21:07:06.304Z,8.02
2023-02-11T21:09:33.716Z,9.70
2023-02-11T21:12:01.648Z,9.35
2023-02-11T21:14:29.281Z,10.60
2023-02-11T21:16:56.746Z,10.68
2023-02-11T21:19:23.977Z,10.20
2023-02-11T21:21:51.223Z,8.65
2023-02-11T21:24:18.239Z,10.40
2023-02-11T21:26:45.419Z,10.05
2023-02-11T21:29:12.389Z,8.20
2023-02-11T21:31:40.225Z,8.52
2023-02-11T21:34:07.550Z,11.05
2023-02-11T21:36:35.027Z,8.55
2023-02-11T21:39:03.889Z,9.52
2023-02-11T21:41:31.003Z,10.77
2023-02-11T21:43:57.954Z,8.30
2023-02-11T21:46:25.385Z,9.20
2023-02-11T21:48:52.686Z,11.52
2023-02-11T21:51:22.533Z,10.60
2023-02-11T21:53:57.792Z,10.18
2023-02-11T21:56:28.986Z,11.05
2023-02-11T21:58:58.350Z,10.13
2023-02-11T22:01:28.643Z,12.75
2023-02-11T22:03:56.316Z,11.25
2023-02-11T22:06:31.161Z,9.88
2023-02-11T22:08:59.528Z,11.20
2023-02-11T22:11:26.502Z,11.20
2023-02-11T22:13:55.512Z,12.50
2023-02-11T22:16:23.343Z,14.55
2023-02-11T22:18:51.536Z,9.77
2023-02-11T22:21:21.424Z,11.57
2023-02-11T22:23:49.454Z,13.65
2023-02-11T22:26:21.850Z,12.57
2023-02-11T22:28:49.936Z,14.90
2023-02-11T22:31:20.088Z,11.82
2023-02-11T22:33:47.529Z,14.27
2023-02-11T22:36:25.976Z,11.85
2023-02-11T22:38:54.116Z,13.85
2023-02-11T22:41:21.098Z,15.13
2023-02-11T22:43:48.261Z,11.93
2023-02-11T22:46:18.002Z,16.42
2023-02-11T22:48:46.167Z,15.18
2023-02-11T22:51:28.608Z,15.15
2023-02-11T22:53:58.402Z,16.30
2023-02-11T22:56:26.126Z,18.98
2023-02-11T22:58:56.553Z,17.23
2023-02-11T23:01:23.649Z,16.98
2023-02-11T23:03:50.802Z,18.08
2023-02-11T23:06:18.213Z,18.40
2023-02-11T23:08:45.501Z,15.43
2023-02-11T23:11:16.641Z,18.17
2023-02-11T23:13:45.034Z,14.93
2023-02-11T23:16:15.426Z,13.23
2023-02-11T23:18:43.988Z,13.68
2023-02-11T23:21:17.552Z,18.02
2023-02-11T23:23:45.792Z,18.20
2023-02-11T23:26:14.879Z,14.40
2023-02-11T23:28:45.933Z,18.90
2023-02-11T23:31:35.413Z,18.80
2023-02-11T23:34:02.603Z,13.77
2023-02-11T23:36:30.369Z,13.57
2023-02-11T23:38:57.425Z,13.43
2023-02-11T23:41:25.449Z,16.33
2023-02-11T23:43:55.518Z,14.10
2023-02-11T23:46:24.001Z,17.50
2023-02-11T23:48:51.819Z,13.95
2023-02-11T23:51:19.913Z,14.32
2023-02-11T23:53:49.113Z,14.07
2023-02-11T23:56:21.146Z,14.27
2023-02-11T23:58:50.189Z,16.73
